Time;durP1;ratioP1;P1;durP2;ratioP2;P2;SDS_P1;SDS_P2;PMS_P1;PMS_P2;Temp;Humidity;BMP_temperature;BMP_pressure;BME280_temperature;BME280_humidity;BME280_pressure;Samples;Min_cycle;Max_cycle;Signal;HPM_P1;HPM_P2
2021/12/09 00:02:16;;;;;;;4.45;1.30;;;;;;;3.65;100.00;98687.69;4996031;28;20060;-73
2021/12/09 00:04:42;;;;;;;4.85;1.13;;;;;;;3.63;100.00;98692.03;4995656;28;20026;-74
2021/12/09 00:07:08;;;;;;;5.18;1.63;;;;;;;3.57;100.00;98698.22;4996016;28;20037;-73
2021/12/09 00:09:33;;;;;;;3.50;1.35;;;;;;;3.51;100.00;98695.78;4995826;28;20038;-73
2021/12/09 00:11:59;;;;;;;2.60;1.17;;;;;;;3.50;100.00;98688.06;4995959;28;20433;-74
2021/12/09 00:14:30;;;;;;;5.65;1.77;;;;;;;3.51;100.00;98695.78;4996194;28;20034;-74
2021/12/09 00:16:58;;;;;;;4.18;1.48;;;;;;;3.52;100.00;98702.66;4995707;28;20089;-74
2021/12/09 00:19:24;;;;;;;5.53;2.05;;;;;;;3.54;100.00;98694.88;4994518;28;20026;-74
2021/12/09 00:21:49;;;;;;;6.50;1.50;;;;;;;3.48;100.00;98692.44;4995381;28;20116;-74
2021/12/09 00:24:16;;;;;;;4.72;1.67;;;;;;;3.41;100.00;98696.06;4995633;28;20125;-75
2021/12/09 00:26:44;;;;;;;5.18;2.03;;;;;;;3.39;100.00;98690.91;4995300;28;20023;-74
2021/12/09 00:29:09;;;;;;;4.68;1.58;;;;;;;3.46;100.00;98687.28;4995242;28;20121;-74
2021/12/09 00:31:35;;;;;;;5.65;2.33;;;;;;;3.41;100.00;98698.63;4995463;28;20101;-74
2021/12/09 00:34:01;;;;;;;3.28;1.17;;;;;;;3.46;100.00;98689.88;4995656;28;20489;-74
2021/12/09 00:36:27;;;;;;;4.20;1.40;;;;;;;3.42;100.00;98688.25;4995466;28;20046;-74
2021/12/09 00:38:56;;;;;;;8.68;2.40;;;;;;;3.39;100.00;98683.16;4995704;28;20351;-74
2021/12/09 00:41:22;;;;;;;3.28;1.27;;;;;;;3.35;100.00;98694.47;4995629;28;20113;-74
2021/12/09 00:43:48;;;;;;;9.15;2.40;;;;;;;3.44;100.00;98691.66;4995408;28;20135;-75
2021/12/09 00:46:13;;;;;;;4.68;1.67;;;;;;;3.43;100.00;98694.28;4993991;28;20038;-74
2021/12/09 00:48:39;;;;;;;5.17;1.87;;;;;;;3.46;100.00;98684.72;4994880;28;20385;-74
2021/12/09 00:51:06;;;;;;;5.10;1.67;;;;;;;3.39;100.00;98682.31;4994904;28;20108;-74
2021/12/09 00:53:32;;;;;;;4.10;1.63;;;;;;;3.38;100.00;98686.63;4995327;28;20038;-74
2021/12/09 00:55:58;;;;;;;;;;;;;;;3.25;100.00;98688.69;4995385;28;20034;-73
2021/12/09 00:58:23;;;;;;;4.65;1.42;;;;;;;3.27;100.00;98686.94;4994720;28;20320;-73
2021/12/09 01:00:49;;;;;;;3.40;1.30;;;;;;;3.28;100.00;98688.63;4994936;28;20466;-74
2021/12/09 01:03:16;;;;;;;3.00;1.58;;;;;;;3.38;100.00;98690.97;4994805;28;20053;-75
2021/12/09 01:05:44;;;;;;;3.22;1.42;;;;;;;3.36;100.00;98689.25;4994961;28;20026;-74
2021/12/09 01:08:10;;;;;;;4.80;1.30;;;;;;;3.32;100.00;98698.00;4994860;28;20038;-74
2021/12/09 01:10:35;;;;;;;3.65;1.35;;;;;;;3.27;100.00;98691.25;4993515;28;20041;-74
2021/12/09 01:13:01;;;;;;;2.75;1.10;;;;;;;3.32;100.00;98692.84;4994937;28;20046;-75
2021/12/09 01:15:26;;;;;;;4.50;1.40;;;;;;;3.31;100.00;98695.47;4994853;28;20458;-74
2021/12/09 01:17:52;;;;;;;3.08;1.27;;;;;;;3.33;100.00;98706.63;4960832;28;20046;-74
2021/12/09 01:20:19;;;;;;;5.03;1.35;;;;;;;3.34;100.00;98700.56;4994730;28;20060;-74
2021/12/09 01:22:46;;;;;;;4.55;1.65;;;;;;;3.33;100.00;98702.28;4994437;28;20042;-74
2021/12/09 01:25:15;;;;;;;6.13;1.70;;;;;;;3.35;100.00;98700.50;4994497;28;20070;-74
2021/12/09 01:27:44;;;;;;;5.75;2.55;;;;;;;3.36;100.00;98701.34;4994510;28;20027;-74
2021/12/09 01:30:16;;;;;;;3.95;1.30;;;;;;;3.39;100.00;98696.09;4994556;28;20038;-74
2021/12/09 01:32:48;;;;;;;4.35;1.13;;;;;;;3.35;100.00;98710.84;4994113;28;20037;-74
2021/12/09 01:35:20;;;;;;;9.10;1.77;;;;;;;3.41;100.00;98703.81;4994243;28;20569;-75
2021/12/09 01:37:46;;;;;;;5.68;1.83;;;;;;;3.38;100.00;98712.50;4993254;28;20026;-74
2021/12/09 01:40:12;;;;;;;;;;;;;;;3.34;100.00;98713.50;4995154;28;20031;-75
2021/12/09 01:42:38;;;;;;;5.82;1.27;;;;;;;3.33;100.00;98715.22;4994318;28;19921;-75
2021/12/09 01:45:04;;;;;;;4.07;1.15;;;;;;;3.40;100.00;98727.97;4994657;28;20038;-75
2021/12/09 01:47:30;;;;;;;4.32;2.25;;;;;;;3.39;100.00;98729.72;4994667;28;20393;-73
2021/12/09 01:49:55;;;;;;;4.30;1.48;;;;;;;3.32;100.00;98730.78;4994305;28;20026;-74
2021/12/09 01:52:21;;;;;;;3.35;1.00;;;;;;;3.34;100.00;98735.00;4994320;28;20457;-74
2021/12/09 01:54:46;;;;;;;6.22;1.63;;;;;;;3.27;100.00;98728.31;4993849;28;20038;-75
2021/12/09 01:57:11;;;;;;;4.90;1.45;;;;;;;3.25;100.00;98731.81;4993946;28;20034;-74
2021/12/09 01:59:37;;;;;;;5.28;1.75;;;;;;;3.26;100.00;98736.94;4994021;28;20034;-74
2021/12/09 02:02:02;;;;;;;3.33;1.10;;;;;;;3.21;100.00;98740.53;4993116;28;20458;-74
2021/12/09 02:04:28;;;;;;;4.20;1.60;;;;;;;3.26;100.00;98734.34;4993970;28;20328;-74
2021/12/09 02:06:53;;;;;;;3.17;1.20;;;;;;;3.21;100.00;98741.38;4992859;28;20433;-74
2021/12/09 02:09:19;;;;;;;5.05;1.90;;;;;;;3.15;100.00;98741.50;4993842;28;20457;-73
2021/12/09 02:11:45;;;;;;;7.43;1.67;;;;;;;3.20;100.00;98747.44;4993901;28;20521;-73
2021/12/09 02:14:11;;;;;;;5.57;1.50;;;;;;;3.18;100.00;98745.75;4993705;28;20109;-74
2021/12/09 02:16:37;;;;;;;2.80;1.17;;;;;;;3.11;100.00;98733.88;4993644;28;20061;-73
2021/12/09 02:19:03;;;;;;;7.78;1.52;;;;;;;3.08;100.00;98731.34;4993666;28;20432;-73
2021/12/09 02:21:32;;;;;;;2.92;1.00;;;;;;;3.02;100.00;98738.34;4995052;28;20037;-75
2021/12/09 02:24:01;;;;;;;3.38;1.25;;;;;;;3.03;100.00;98742.66;5000549;28;20035;-74
2021/12/09 02:26:30;;;;;;;3.45;1.40;;;;;;;2.96;100.00;98737.69;4998958;28;20045;-73
2021/12/09 02:28:57;;;;;;;5.30;1.67;;;;;;;3.09;100.00;98728.72;5000380;28;20038;-74
2021/12/09 02:31:25;;;;;;;5.40;1.75;;;;;;;2.90;100.00;98724.91;5000633;28;20034;-75
2021/12/09 02:33:50;;;;;;;15.32;2.55;;;;;;;2.98;100.00;98726.38;5000130;28;20034;-75
2021/12/09 02:36:16;;;;;;;6.80;1.98;;;;;;;3.08;100.00;98731.34;5000134;28;20031;-73
2021/12/09 02:38:44;;;;;;;3.53;1.50;;;;;;;2.97;100.00;98727.28;5000108;28;20042;-74
2021/12/09 02:41:16;;;;;;;4.28;1.33;;;;;;;2.89;100.00;98724.03;4999856;28;20031;-73
2021/12/09 02:43:44;;;;;;;7.47;1.70;;;;;;;2.92;100.00;98723.97;5000055;28;20358;-73
2021/12/09 02:46:10;;;;;;;4.70;1.75;;;;;;;2.90;100.00;98723.16;4999815;28;20397;-74
2021/12/09 02:48:36;;;;;;;;;;;;;;;2.90;100.00;98720.56;4999241;28;20062;-73
2021/12/09 02:51:03;;;;;;;5.82;1.50;;;;;;;2.88;100.00;98718.91;5000079;28;20332;-74
2021/12/09 02:53:28;;;;;;;5.47;2.25;;;;;;;2.79;100.00;98726.88;4999913;28;20049;-73
2021/12/09 02:55:54;;;;;;;8.70;1.90;;;;;;;2.81;100.00;98730.25;4999964;28;20031;-74
2021/12/09 02:58:19;;;;;;;5.28;2.25;;;;;;;2.80;100.00;98728.56;4999676;28;20313;-74
2021/12/09 03:00:51;;;;;;;4.57;1.60;;;;;;;2.72;100.00;98733.03;4999824;28;20077;-73
2021/12/09 03:03:16;;;;;;;5.57;2.25;;;;;;;2.73;100.00;98724.41;4999706;28;20370;-74
2021/12/09 03:05:42;;;;;;;8.90;2.55;;;;;;;2.66;100.00;98728.84;4999853;28;20057;-74
2021/12/09 03:08:08;;;;;;;6.40;2.30;;;;;;;2.70;100.00;98730.50;4999510;28;20586;-74
2021/12/09 03:10:34;;;;;;;;;;;;;;;2.74;100.00;98729.53;5000074;28;20450;-74
2021/12/09 03:13:01;;;;;;;8.65;1.73;;;;;;;2.63;100.00;98723.75;5000129;28;19953;-73
2021/12/09 03:15:26;;;;;;;7.18;2.28;;;;;;;2.63;100.00;98732.34;4999814;28;20023;-75
2021/12/09 03:17:52;;;;;;;4.68;1.50;;;;;;;2.71;100.00;98723.59;4952744;28;20050;-74
2021/12/09 03:20:20;;;;;;;5.22;1.55;;;;;;;2.67;100.00;98720.22;4999519;28;20057;-73
2021/12/09 03:22:48;;;;;;;7.55;1.80;;;;;;;2.68;100.00;98725.34;4999382;28;20037;-74
2021/12/09 03:25:17;;;;;;;5.53;1.95;;;;;;;2.72;100.00;98723.56;4999795;28;20042;-74
2021/12/09 03:27:42;;;;;;;8.40;2.10;;;;;;;2.72;100.00;98726.16;5000236;28;20038;-74
2021/12/09 03:30:10;;;;;;;4.35;1.52;;;;;;;2.73;100.00;98730.44;4999366;28;20034;-74
2021/12/09 03:32:36;;;;;;;4.75;1.55;;;;;;;2.75;100.00;98732.97;4997884;28;20474;-73
2021/12/09 03:35:02;;;;;;;7.88;1.50;;;;;;;2.65;100.00;98729.75;4996126;28;20058;-73
2021/12/09 03:38:08;;;;;;;5.50;1.92;;;;;;;2.64;100.00;98733.22;4996516;28;20492;-74
2021/12/09 03:40:33;;;;;;;5.70;1.63;;;;;;;2.62;100.00;98725.50;4996569;28;20146;-73
2021/12/09 03:42:59;;;;;;;3.53;1.30;;;;;;;2.63;100.00;98734.94;4996479;28;20105;-74
2021/12/09 03:45:24;;;;;;;7.65;1.65;;;;;;;2.62;100.00;98737.56;4995253;28;20071;-73
2021/12/09 03:47:49;;;;;;;9.30;2.50;;;;;;;2.61;100.00;98731.53;4996182;28;20128;-74
2021/12/09 03:50:17;;;;;;;4.97;2.00;;;;;;;2.56;100.00;98737.72;4996365;28;20034;-74
2021/12/09 03:52:43;;;;;;;4.55;1.70;;;;;;;2.45;100.00;98737.94;4995940;28;20045;-73
2021/12/09 03:55:09;;;;;;;6.07;2.35;;;;;;;2.60;100.00;98732.41;4995942;28;20030;-73
2021/12/09 03:57:34;;;;;;;4.90;2.13;;;;;;;2.49;100.00;98737.00;4996102;28;20042;-74
2021/12/09 03:59:59;;;;;;;4.00;2.10;;;;;;;2.61;100.00;98736.72;4996575;28;20026;-74
2021/12/09 04:02:25;;;;;;;4.65;1.60;;;;;;;2.51;100.00;98735.22;4996156;28;20728;-74
2021/12/09 04:04:50;;;;;;;4.15;1.88;;;;;;;2.52;100.00;98739.50;4995753;28;20153;-74
2021/12/09 04:07:16;;;;;;;6.20;1.30;;;;;;;2.59;100.00;98733.34;4995947;28;20026;-74
2021/12/09 04:09:42;;;;;;;4.65;1.80;;;;;;;2.52;100.00;98739.50;4995831;28;20042;-73
2021/12/09 04:12:09;;;;;;;4.50;2.30;;;;;;;2.49;100.00;98729.25;4995551;28;20500;-75
2021/12/09 04:14:35;;;;;;;5.03;1.85;;;;;;;2.44;100.00;98740.53;4995797;28;20417;-74
2021/12/09 04:17:01;;;;;;;3.42;1.75;;;;;;;2.51;100.00;98735.22;4995869;28;20050;-73
2021/12/09 04:19:26;;;;;;;7.38;2.15;;;;;;;2.49;100.00;98741.31;4995717;28;20037;-74
2021/12/09 04:21:51;;;;;;;8.02;2.20;;;;;;;2.51;100.00;98747.28;4995461;28;20030;-73
2021/12/09 04:24:17;;;;;;;8.43;1.67;;;;;;;2.42;100.00;98743.16;4995640;28;20113;-73
2021/12/09 04:26:46;;;;;;;5.57;2.35;;;;;;;2.45;100.00;98752.56;4995568;28;20089;-74
2021/12/09 04:29:12;;;;;;;6.25;2.03;;;;;;;2.42;100.00;98740.59;4995613;28;20100;-75
2021/12/09 04:31:39;;;;;;;5.10;1.40;;;;;;;2.37;100.00;98744.97;4995535;28;20034;-74
2021/12/09 04:34:05;;;;;;;12.70;2.88;;;;;;;2.37;100.00;98744.97;4995680;28;20052;-74
2021/12/09 04:36:31;;;;;;;4.55;1.77;;;;;;;2.49;100.00;98749.06;5010488;28;20461;-73
2021/12/09 04:38:56;;;;;;;6.78;1.88;;;;;;;2.53;100.00;98737.78;4995712;28;20350;-74
2021/12/09 04:41:22;;;;;;;5.30;1.85;;;;;;;2.56;100.00;98741.16;4995314;28;20065;-75
2021/12/09 04:43:48;;;;;;;6.90;3.30;;;;;;;2.50;100.00;98743.00;4995078;28;20062;-77
2021/12/09 04:46:14;;;;;;;7.35;1.77;;;;;;;2.38;100.00;98744.09;4995135;28;20084;-76
2021/12/09 04:48:40;;;;;;;4.65;1.75;;;;;;;2.48;100.00;98740.47;4995035;28;20034;-77
2021/12/09 04:51:06;;;;;;;5.13;1.67;;;;;;;2.45;100.00;98750.84;4995397;28;20129;-76
2021/12/09 04:53:32;;;;;;;4.28;1.80;;;;;;;2.35;100.00;98750.19;5010271;28;20038;-76
2021/12/09 04:55:58;;;;;;;4.05;1.50;;;;;;;2.37;100.00;98767.38;4995241;28;20539;-75
2021/12/09 04:58:25;;;;;;;6.32;2.03;;;;;;;2.35;100.00;98767.41;4994780;28;20061;-75
2021/12/09 05:00:54;;;;;;;3.50;1.13;;;;;;;2.30;100.00;98769.22;4995227;28;20039;-76
2021/12/09 05:03:20;;;;;;;4.25;1.70;;;;;;;2.28;100.00;98777.00;4995470;28;20646;-75
2021/12/09 05:05:51;;;;;;;4.43;1.33;;;;;;;2.40;100.00;98778.50;4994974;28;20030;-76
2021/12/09 05:08:20;;;;;;;6.63;1.80;;;;;;;2.42;100.00;98774.16;4994917;28;20267;-75
2021/12/09 05:11:05;;;;;;;5.13;1.80;;;;;;;2.46;100.00;98783.53;4993809;28;20027;-76
2021/12/09 05:13:33;;;;;;;7.15;1.50;;;;;;;2.37;100.00;98775.13;4995406;28;20034;-75
2021/12/09 05:16:00;;;;;;;4.45;1.85;;;;;;;2.38;100.00;98780.25;4955423;28;20057;-75
2021/12/09 05:18:28;;;;;;;3.45;1.77;;;;;;;2.34;100.00;98782.03;4994551;28;20061;-76
2021/12/09 05:20:54;;;;;;;5.35;1.48;;;;;;;2.41;100.00;98781.94;4993393;28;20034;-75
2021/12/09 05:23:22;;;;;;;4.68;1.75;;;;;;;2.40;100.00;98793.13;4994322;28;20030;-73
2021/12/09 05:25:47;;;;;;;4.68;2.13;;;;;;;2.39;100.00;98796.59;4994513;28;20034;-73
2021/12/09 05:28:16;;;;;;;3.38;1.30;;;;;;;2.41;100.00;98800.84;4994233;28;20089;-74
2021/12/09 05:33:33;;;;;;;10.05;2.63;;;;;;;2.47;100.00;98805.03;4994095;28;20128;-74
2021/12/09 05:35:59;;;;;;;;;;;;;;;2.47;100.00;98812.78;4994898;28;20045;-74
2021/12/09 05:38:24;;;;;;;5.43;1.35;;;;;;;2.43;100.00;98814.59;4994339;28;19993;-75
2021/12/09 05:40:50;;;;;;;5.55;1.83;;;;;;;2.44;100.00;98808.53;4993865;28;20029;-74
2021/12/09 05:43:16;;;;;;;5.45;2.17;;;;;;;2.51;100.00;98809.28;4994327;28;20381;-74
2021/12/09 05:45:43;;;;;;;3.97;1.40;;;;;;;2.49;100.00;98803.28;4993058;28;20077;-73
2021/12/09 05:48:10;;;;;;;4.40;1.65;;;;;;;2.49;100.00;98800.69;4993805;28;20046;-74
2021/12/09 05:50:36;;;;;;;3.78;1.33;;;;;;;2.50;100.00;98805.84;4994053;28;20137;-74
2021/12/09 05:53:01;;;;;;;6.65;1.88;;;;;;;2.46;100.00;98806.78;4994244;28;20038;-73
2021/12/09 05:55:27;;;;;;;7.30;1.92;;;;;;;2.45;100.00;98807.66;4993685;28;20116;-76
2021/12/09 05:57:57;;;;;;;3.95;1.30;;;;;;;2.40;100.00;98809.47;4993143;28;20061;-74
2021/12/09 06:00:23;;;;;;;6.28;1.60;;;;;;;2.43;100.00;98824.06;4994780;28;20469;-76
2021/12/09 06:02:48;;;;;;;7.43;1.60;;;;;;;2.46;100.00;98818.84;4993872;28;20030;-75
2021/12/09 06:05:14;;;;;;;3.03;1.50;;;;;;;2.49;100.00;98819.63;4992651;28;20038;-75
2021/12/09 06:07:39;;;;;;;5.72;1.63;;;;;;;2.37;100.00;98816.44;4994148;28;20446;-74
2021/12/09 06:10:06;;;;;;;5.32;1.55;;;;;;;2.38;100.00;98808.66;4993769;28;20046;-75
2021/12/09 06:12:32;;;;;;;4.90;1.50;;;;;;;2.38;100.00;98807.81;4993528;28;20081;-74
2021/12/09 06:14:58;;;;;;;4.03;1.58;;;;;;;2.42;100.00;98825.78;4992121;28;20038;-75
2021/12/09 06:17:24;;;;;;;5.47;1.52;;;;;;;2.42;100.00;98812.03;4993295;28;20081;-74
2021/12/09 06:19:49;;;;;;;3.33;1.38;;;;;;;2.41;100.00;98821.50;4993631;28;20042;-75
2021/12/09 06:22:15;;;;;;;5.18;2.03;;;;;;;2.44;100.00;98821.44;4993717;28;20032;-74
2021/12/09 06:24:41;;;;;;;3.88;1.50;;;;;;;2.41;100.00;98824.09;4993413;28;20073;-74
2021/12/09 06:27:07;;;;;;;5.20;2.10;;;;;;;2.48;100.00;98814.50;4992268;28;20042;-74
2021/12/09 06:29:34;;;;;;;5.53;1.25;;;;;;;2.46;100.00;98817.09;4993571;28;20086;-75
2021/12/09 06:32:00;;;;;;;3.83;1.38;;;;;;;2.44;100.00;98818.88;4993494;28;20094;-75
2021/12/09 06:34:25;;;;;;;6.05;1.45;;;;;;;2.34;100.00;98823.34;4993503;28;20042;-74
2021/12/09 06:36:51;;;;;;;3.87;1.17;;;;;;;2.37;100.00;98816.44;4993220;28;20066;-75
2021/12/09 06:39:17;;;;;;;6.03;1.75;;;;;;;2.28;100.00;98820.03;4993993;28;20053;-74
2021/12/09 06:41:43;;;;;;;4.75;1.50;;;;;;;2.26;100.00;98819.22;4992098;28;20035;-74
2021/12/09 06:44:08;;;;;;;8.63;1.77;;;;;;;2.29;100.00;98821.72;4993512;28;20081;-75
2021/12/09 06:46:34;;;;;;;4.32;1.60;;;;;;;2.32;100.00;98811.34;4993632;28;20393;-75
2021/12/09 06:48:59;;;;;;;4.05;2.05;;;;;;;2.34;100.00;98815.59;4993205;28;20034;-74
2021/12/09 06:51:25;;;;;;;6.88;1.60;;;;;;;2.42;100.00;98810.28;4993142;28;20060;-75
2021/12/09 06:53:51;;;;;;;4.75;1.50;;;;;;;2.43;100.00;98818.91;4993014;28;20557;-75
2021/12/09 06:56:16;;;;;;;5.45;1.83;;;;;;;2.38;100.00;98811.22;4992896;28;20034;-75
2021/12/09 06:58:42;;;;;;;4.72;1.75;;;;;;;2.38;100.00;98808.66;4992850;28;20023;-76
2021/12/09 07:01:07;;;;;;;6.18;1.25;;;;;;;2.37;100.00;98814.69;4993090;28;20034;-75
2021/12/09 07:03:34;;;;;;;5.75;1.90;;;;;;;2.42;100.00;98810.28;4993401;28;20042;-75
2021/12/09 07:06:05;;;;;;;8.55;1.80;;;;;;;2.40;100.00;98817.22;4991745;28;20049;-74
2021/12/09 07:08:31;;;;;;;7.32;2.03;;;;;;;2.40;100.00;98806.03;4995245;28;20026;-74
2021/12/09 07:10:57;;;;;;;5.82;2.25;;;;;;;2.44;100.00;98813.69;4996653;28;20038;-75
2021/12/09 07:13:22;;;;;;;5.97;2.27;;;;;;;2.43;100.00;98822.31;4996553;28;20054;-74
2021/12/09 07:15:47;;;;;;;4.68;1.70;;;;;;;2.46;100.00;98814.53;4956153;28;20294;-74
2021/12/09 07:18:13;;;;;;;3.25;1.60;;;;;;;2.44;100.00;98812.84;4995491;28;20042;-74
2021/12/09 07:20:38;;;;;;;7.22;1.95;;;;;;;2.48;100.00;98817.94;4996425;28;20035;-74
2021/12/09 07:23:04;;;;;;;5.03;1.98;;;;;;;2.47;100.00;98815.38;4996406;28;20098;-74
2021/12/09 07:25:29;;;;;;;4.78;2.28;;;;;;;2.55;100.00;98816.06;4996415;28;20046;-76
2021/12/09 07:27:55;;;;;;;7.93;2.13;;;;;;;2.49;100.00;98826.53;4996543;28;20065;-75
2021/12/09 07:30:24;;;;;;;6.97;3.15;;;;;;;2.54;100.00;98822.97;4996185;28;20592;-75
2021/12/09 07:32:50;;;;;;;7.10;2.28;;;;;;;2.49;100.00;98826.53;4996416;28;20066;-75
2021/12/09 07:35:19;;;;;;;9.07;2.80;;;;;;;2.44;100.00;98830.94;4996492;28;20034;-74
2021/12/09 07:37:45;;;;;;;7.05;2.08;;;;;;;2.47;100.00;98838.63;4996454;28;20093;-75
2021/12/09 07:40:15;;;;;;;4.90;1.80;;;;;;;2.53;100.00;98839.34;4996343;28;20038;-74
2021/12/09 07:42:41;;;;;;;4.70;1.85;;;;;;;2.47;100.00;98846.38;4994541;28;20046;-75
2021/12/09 07:45:08;;;;;;;5.03;2.03;;;;;;;2.43;100.00;98845.56;4996165;28;20040;-76
2021/12/09 07:47:33;;;;;;;3.92;1.42;;;;;;;2.44;100.00;98851.59;4995880;28;20041;-76
2021/12/09 07:49:59;;;;;;;4.07;1.60;;;;;;;2.44;100.00;98849.00;4996228;28;20038;-76
2021/12/09 07:52:24;;;;;;;;;;;;;;;2.42;100.00;98848.19;4996215;28;20073;-76
2021/12/09 07:54:50;;;;;;;4.25;1.40;;;;;;;2.38;100.00;98849.97;4995739;28;19948;-76
2021/12/09 07:57:15;;;;;;;3.30;1.20;;;;;;;2.35;100.00;98856.03;4996011;28;20035;-75
2021/12/09 07:59:40;;;;;;;6.57;1.77;;;;;;;2.29;100.00;98860.47;4995611;28;20034;-76
2021/12/09 08:02:07;;;;;;;3.22;1.30;;;;;;;2.23;100.00;98855.41;4995571;28;20026;-76
2021/12/09 08:04:33;;;;;;;4.75;1.40;;;;;;;2.22;100.00;98857.16;4995839;28;20030;-74
2021/12/09 08:06:59;;;;;;;5.68;1.88;;;;;;;2.23;100.00;98856.25;4995434;28;20389;-74
2021/12/09 08:09:24;;;;;;;6.75;1.85;;;;;;;2.23;100.00;98856.25;4995644;28;20038;-74
2021/12/09 08:11:50;;;;;;;5.55;2.35;;;;;;;2.28;100.00;98853.59;4996146;28;20038;-74
2021/12/09 08:14:16;;;;;;;5.47;1.83;;;;;;;2.18;100.00;98863.25;4995255;28;20473;-74
2021/12/09 08:16:42;;;;;;;4.97;1.92;;;;;;;2.23;100.00;98858.84;4994249;28;20042;-76
2021/12/09 08:19:12;;;;;;;4.38;1.80;;;;;;;2.13;100.00;98862.47;4994820;28;20490;-74
2021/12/09 08:21:39;;;;;;;3.75;1.77;;;;;;;2.30;100.00;98857.00;4995652;28;20268;-74
2021/12/09 08:24:06;;;;;;;6.45;1.42;;;;;;;2.27;100.00;98862.22;4995571;28;20030;-75
2021/12/09 08:26:33;;;;;;;5.93;1.77;;;;;;;2.33;100.00;98860.38;4995180;28;20088;-74
2021/12/09 08:28:59;;;;;;;6.47;2.28;;;;;;;2.32;100.00;98865.56;4995356;28;20034;-74
2021/12/09 08:31:26;;;;;;;3.92;1.58;;;;;;;2.41;100.00;98867.13;4994089;28;20072;-74
2021/12/09 08:33:52;;;;;;;5.75;1.63;;;;;;;2.43;100.00;98866.22;4995128;28;20042;-74
2021/12/09 08:36:17;;;;;;;6.47;1.55;;;;;;;2.39;100.00;98868.88;4994962;28;20038;-75
2021/12/09 08:38:42;;;;;;;6.15;1.65;;;;;;;2.37;100.00;98868.91;4995337;28;20045;-75
2021/12/09 08:41:08;;;;;;;6.83;1.67;;;;;;;2.45;100.00;98882.53;4994765;28;20470;-74
2021/12/09 08:43:34;;;;;;;4.43;1.73;;;;;;;2.51;100.00;98879.00;4993473;28;20620;-77
2021/12/09 08:45:59;;;;;;;6.05;1.65;;;;;;;2.54;100.00;98881.53;4995042;28;20034;-75
2021/12/09 08:48:26;;;;;;;5.33;1.37;;;;;;;2.52;100.00;98883.28;4994887;28;20026;-73
2021/12/09 08:50:52;;;;;;;7.35;1.80;;;;;;;2.58;100.00;98885.75;4994608;28;20659;-74
2021/12/09 08:53:21;;;;;;;4.47;1.77;;;;;;;2.58;100.00;98873.69;4994761;28;20165;-75
2021/12/09 08:55:46;;;;;;;5.93;1.90;;;;;;;2.53;100.00;98872.94;4994775;28;20507;-74
2021/12/09 08:58:14;;;;;;;4.30;1.85;;;;;;;2.61;100.00;98878.78;4994866;28;20117;-75
2021/12/09 09:00:40;;;;;;;2.97;1.40;;;;;;;2.60;100.00;98879.66;4994489;28;20384;-74
2021/12/09 09:03:05;;;;;;;;;;;;;;;2.65;100.00;98885.59;4994606;28;20389;-74
2021/12/09 09:05:33;;;;;;;5.03;1.25;;;;;;;2.67;100.00;98890.72;4994520;28;19910;-74
2021/12/09 09:07:58;;;;;;;3.35;1.27;;;;;;;2.69;100.00;98884.66;4994635;28;20038;-75
2021/12/09 09:10:27;;;;;;;8.82;1.52;;;;;;;2.69;100.00;98892.41;4994306;28;20085;-75
2021/12/09 09:12:53;;;;;;;5.07;1.30;;;;;;;2.71;100.00;98889.78;4994531;28;20069;-75
2021/12/09 09:15:22;;;;;;;3.65;1.85;;;;;;;2.73;100.00;98898.34;4951402;28;20411;-76
2021/12/09 09:17:48;;;;;;;6.28;2.05;;;;;;;2.81;100.00;98896.47;4994557;28;20046;-75
2021/12/09 09:20:15;;;;;;;3.75;1.60;;;;;;;2.74;100.00;98899.22;4994126;28;20042;-75
2021/12/09 09:22:41;;;;;;;7.70;1.60;;;;;;;2.77;100.00;98891.41;4994389;28;20389;-76
2021/12/09 09:25:09;;;;;;;3.03;1.63;;;;;;;2.79;100.00;98899.97;4993814;28;20023;-75
2021/12/09 09:27:35;;;;;;;3.65;1.88;;;;;;;2.71;100.00;98899.25;5009070;28;20117;-74
2021/12/09 09:30:04;;;;;;;11.73;1.83;;;;;;;2.77;100.00;98904.31;4994332;28;20357;-75
2021/12/09 09:32:30;;;;;;;7.20;2.28;;;;;;;2.82;100.00;98912.84;4993158;28;20034;-75
2021/12/09 09:34:55;;;;;;;4.15;1.63;;;;;;;2.90;100.00;98904.06;4993914;28;20038;-76
2021/12/09 09:37:21;;;;;;;5.80;1.80;;;;;;;2.94;100.00;98912.59;4992696;28;20030;-75
2021/12/09 09:39:47;;;;;;;5.13;1.95;;;;;;;2.88;100.00;98916.16;4994144;28;20035;-74
2021/12/09 09:44:49;;;;;;;4.22;1.67;;;;;;;2.90;100.00;98909.22;4994206;28;20060;-75
2021/12/09 09:47:16;;;;;;;7.40;1.77;;;;;;;2.98;100.00;98904.72;4993684;28;20038;-76
2021/12/09 09:49:42;;;;;;;5.07;1.98;;;;;;;2.98;100.00;98903.88;4993819;28;20389;-74
2021/12/09 09:52:09;;;;;;;;;;;;;;;3.03;100.00;98912.38;4994602;28;20038;-74
2021/12/09 09:54:36;;;;;;;5.72;2.13;;;;;;;3.11;100.00;98918.25;4994056;28;19913;-74
2021/12/09 09:57:03;;;;;;;6.78;2.15;;;;;;;3.03;100.00;98907.22;4993527;28;20480;-74
2021/12/09 09:59:29;;;;;;;6.50;1.92;;;;;;;3.08;100.00;98907.13;4993724;28;20030;-75
2021/12/09 10:01:55;;;;;;;5.68;2.65;;;;;;;3.10;100.00;98910.53;4994107;28;20370;-74
2021/12/09 10:04:32;;;;;;;10.48;1.92;;;;;;;3.09;100.00;98907.09;4993889;28;20038;-74
2021/12/09 10:06:58;;;;;;;5.13;1.98;;;;;;;3.15;100.00;98916.47;4992256;28;20370;-74
2021/12/09 10:09:24;;;;;;;5.80;2.10;;;;;;;3.14;100.00;98914.75;4993330;28;20106;-75
2021/12/09 10:11:49;;;;;;;6.15;2.83;;;;;;;3.14;100.00;98915.59;4993377;28;20038;-74
2021/12/09 10:14:19;;;;;;;8.65;3.20;;;;;;;3.18;100.00;98919.84;4993167;28;20109;-75
2021/12/09 10:16:46;;;;;;;6.88;1.77;;;;;;;3.22;100.00;98924.06;4993294;28;20042;-76
2021/12/09 10:19:17;;;;;;;5.13;1.52;;;;;;;3.22;100.00;98916.31;4993650;28;20062;-74
2021/12/09 10:21:44;;;;;;;4.35;1.77;;;;;;;3.06;100.00;98920.06;4993128;28;20039;-74
2021/12/09 10:24:09;;;;;;;6.05;2.45;;;;;;;3.16;100.00;98915.56;4993159;28;20041;-74
2021/12/09 10:26:42;;;;;;;7.38;1.90;;;;;;;3.10;100.00;98913.97;4992170;28;20428;-74
2021/12/09 10:29:47;;;;;;;5.43;1.75;;;;;;;3.10;100.00;98907.94;4993997;28;20049;-74
2021/12/09 10:32:19;;;;;;;6.05;2.38;;;;;;;3.30;100.00;98901.47;4993027;28;20054;-75
2021/12/09 10:34:47;;;;;;;10.68;1.80;;;;;;;3.22;100.00;98905.97;4993196;28;20473;-74
2021/12/09 10:37:25;;;;;;;4.53;1.60;;;;;;;3.31;100.00;98904.91;4993438;28;20030;-76
2021/12/09 10:40:20;;;;;;;7.28;2.65;;;;;;;3.33;100.00;98892.81;4993121;28;20475;-74
2021/12/09 10:42:49;;;;;;;9.20;2.22;;;;;;;3.38;100.00;98892.69;4994569;28;20137;-75
2021/12/09 10:45:20;;;;;;;5.53;2.10;;;;;;;3.52;100.00;98886.31;4997386;28;20080;-75
2021/12/09 10:48:04;;;;;;;3.58;1.52;;;;;;;3.54;100.00;98887.13;4997378;28;20026;-74
2021/12/09 10:50:46;;;;;;;8.20;2.30;;;;;;;3.53;100.00;98879.41;4997262;28;20026;-75
2021/12/09 10:55:47;;;;;;;5.22;1.88;;;;;;;3.55;100.00;98873.31;4997013;28;20046;-76
2021/12/09 10:58:15;;;;;;;6.65;2.53;;;;;;;3.60;100.00;98880.97;4997025;28;20031;-75
2021/12/09 11:00:43;;;;;;;3.65;1.70;;;;;;;3.55;100.00;98878.50;4996879;28;20030;-75
2021/12/09 11:03:18;;;;;;;5.97;2.08;;;;;;;3.60;100.00;98879.25;4996963;28;20080;-75
2021/12/09 11:06:15;;;;;;;9.07;2.72;;;;;;;3.54;100.00;98876.78;4996833;28;20117;-74
2021/12/09 11:08:46;;;;;;;6.97;2.38;;;;;;;3.62;100.00;98877.47;4996755;28;20472;-76
2021/12/09 11:11:16;;;;;;;8.32;2.00;;;;;;;3.60;100.00;98875.81;4996772;28;20022;-74
2021/12/09 11:13:55;;;;;;;5.43;2.42;;;;;;;3.64;100.00;98872.25;4996292;28;20138;-75
2021/12/09 11:16:31;;;;;;;3.90;1.80;;;;;;;3.74;100.00;98867.69;4946227;28;20046;-74
2021/12/09 11:19:13;;;;;;;6.22;2.15;;;;;;;3.67;100.00;98867.00;4996589;28;20168;-73
2021/12/09 11:21:44;;;;;;;5.53;1.73;;;;;;;3.68;100.00;98869.56;4996061;28;20034;-74
2021/12/09 11:24:15;;;;;;;7.43;1.98;;;;;;;3.73;100.00;98864.25;4996296;28;20109;-74
2021/12/09 11:27:03;;;;;;;10.23;2.28;;;;;;;3.71;100.00;98855.72;4996613;28;20034;-74
2021/12/09 11:29:51;;;;;;;9.68;3.38;;;;;;;3.74;100.00;98862.50;4996180;28;20038;-75
2021/12/09 11:32:28;;;;;;;5.07;2.13;;;;;;;3.73;100.00;98860.81;4996690;28;20026;-75
2021/12/09 11:35:25;;;;;;;5.43;1.88;;;;;;;3.77;100.00;98863.28;4995332;28;20023;-75
2021/12/09 11:38:01;;;;;;;6.37;1.90;;;;;;;3.75;100.00;98856.44;4996636;28;20417;-75
2021/12/09 11:40:49;;;;;;;5.65;2.13;;;;;;;3.79;100.00;98858.09;4996724;28;20041;-76
2021/12/09 11:43:20;;;;;;;7.18;1.90;;;;;;;3.79;100.00;98856.34;4996532;28;20041;-75
2021/12/09 11:45:48;;;;;;;6.15;1.95;;;;;;;3.76;100.00;98853.81;4996321;28;20041;-73